Relevés horaires Bouveret (Suisse)


Relevés horaires à Bouveret - Mercredi 07 Sept. 2022
Heure UTC1 Température [°C] Vent [km/h] Hum. [%] Pres.4 [hPa] Visi. [Km] Nébu. [octa] Préc.5 [mm] Cond.
2m. Res. Ros. Dir.2 Vit. Moy. Raf.3
23:00 18.5 17.9 16.1 NNO 24.1 -- 94.5 86 1013.9(1.8/3h) -- -- -- --
22:00 20.0 20.0 16.0 ESE 7.4 -- 22.2 78 1010.2(-0.1/3h) -- -- -- --
21:00 21.4 21.4 15.5 ONO 9.3 -- 68.5 69 1011(0.6/3h) -- -- -- --
20:00 21.4 21.4 15.8 O 33.3 -- 68.5 70 1011.5(0.2/3h) -- -- -- --
19:00 20.1 20.1 17.4 SE 14.8 -- 27.8 84 1010.3(-1.5/3h) -- -- -- --
18:00 20.9 20.9 17.9 SE 16.7 -- 40.7 83 1010.5(-1.2/3h) -- -- -- --
17:00 21.4 21.4 17.7 SSE 9.3 -- 24.1 79 1011.3(-0.8/3h) -- -- -- --
16:00 21.5 21.5 17.9 SE 13.0 -- 22.2 80 1011.6(-0.9/3h) -- -- -- --
15:00 22.9 22.9 17.8 NNO 5.6 -- 18.5 73 1011.4(-1.6/3h) -- -- -- --
14:00 22.7 22.7 18.6 NNO 7.4 -- 13.0 78 1012(-1.8/3h) -- -- -- --
13:00 22.9 22.9 18.4 NNO 9.3 -- 18.5 76 1012.3(-2.0/3h) -- -- -- --
12:00 22.7 22.7 17.2 ONO 18.5 -- 37.0 71 1013.1(-1.7/3h) -- -- -- --
11:00 21.9 21.9 17.7 ONO 16.7 -- 20.4 77 1014(-1.4/3h) -- -- -- --
10:00 21.3 21.3 17.5 O 11.1 -- 25.9 79 1014.7(-1.4/3h) -- -- -- --
09:00 21.6 21.6 15.0 SSE 14.8 -- 37.0 66 1015(-0.2/3h) -- -- -- --
08:00 20.1 20.1 15.4 SE 14.8 -- 29.6 74 1015.7(-0.3/3h) -- -- -- --
07:00 19.5 19.5 15.1 SSE 14.8 -- 37.0 76 1016.4(0.4/3h) -- -- -- --
06:00 18.9 18.6 15.1 SE 20.4 -- 37.0 79 1015.7(-0.7/3h) -- -- -- --
05:00 18.6 18.6 15.4 SE 11.1 -- 20.4 82 1016.3(-0.6/3h) -- -- -- --
04:00 18.8 18.8 15.4 SE 9.3 -- 31.5 81 1016.1(-0.6/3h) -- -- -- --
03:00 19.6 19.6 15.4 SSE 14.8 -- 33.3 77 1016.3(-0.6/3h) -- -- -- --
02:00 19.2 19.2 15.5 SE 7.4 -- 18.5 79 1016.8(0.3/3h) -- -- -- --
01:00 19.9 19.9 15.5 SSE 11.1 -- 33.3 76 1016.6(0.3/3h) -- -- -- --
00:00 20.4 20.4 15.6 SSE 16.7 -- 48.2 74 1016.8(0.8/3h) -- -- -- --

1 Coordinated Universal Time. Actuellement il est 02:00 locale et 00:00 UTC.

2 Le vent souffle depuis la direction indiquée vers la direction oposée.

3 Les rafales max. sont disponible 40 min après l'heure du relevé.

4 Pour les stations d'altitude (plus de 600m) le géopotentiel du niveau le plus proche de la pression obligatoire est indiqué.

5 Les stations disposant d'un diffuseur peuvent indiquer "trace". Cela signifie que des précipitations ont touchés le sol mais que la quantité est inférieure à 0.1 mm.

Copyright

Les données affichées sur cette page sont la propriété exclusive de Météo Suisse.

Récapitulatif de la journée
Température [°C] Vent [km/h] Ensoleillement4 [h] Precipitations totale5 [mm] Pression [Hpa]
Min1 Max.2 Moy.3 Max. Min Max.
18.4 23.0 0 94.5 0 h 0 min 0 1010.2 1016.8

1 Température minimale relevée entre 18:00 UTC la veille et 18:00 UTC le jour donné.

2 Température maximale relevée entre 06:00 UTC le jour donné et 06:00 UTC le lendemain.

3 Vent moyen de la journée basé sur les relevés horaires.

4 Ensoleillement en heures relevé entre 06:00 UTC la veille et 06:00 UTC le jour donné.

5 Précipitations totales tombées entre 06:00 UTC la jour donné et 06:00 UTC le lendemain.

Graphiques horaires